createdAt,value
2023-04-11T00:00:29.162Z,3.37
2023-04-11T00:03:00.481Z,2.80
2023-04-11T00:05:31.473Z,3.00
2023-04-11T00:07:59.953Z,3.33
2023-04-11T00:10:28.904Z,3.10
2023-04-11T00:12:57.719Z,3.30
2023-04-11T00:15:26.845Z,3.30
2023-04-11T00:17:59.042Z,3.30
2023-04-11T00:20:27.347Z,3.20
2023-04-11T00:22:55.574Z,3.17
2023-04-11T00:25:23.810Z,3.17
2023-04-11T00:27:51.990Z,3.00
2023-04-11T00:30:20.220Z,3.13
2023-04-11T00:32:50.021Z,2.93
2023-04-11T00:35:20.071Z,2.87
2023-04-11T00:37:51.532Z,3.20
2023-04-11T00:40:20.941Z,3.17
2023-04-11T00:42:49.681Z,2.83
2023-04-11T00:45:17.855Z,3.20
2023-04-11T00:47:46.204Z,3.40
2023-04-11T00:50:15.992Z,3.27
2023-04-11T00:52:49.267Z,3.40
2023-04-11T00:55:17.658Z,3.17
2023-04-11T00:57:46.492Z,3.40
2023-04-11T01:00:15.946Z,2.97
2023-04-11T01:02:45.287Z,2.87
2023-04-11T01:05:15.986Z,3.10
2023-04-11T01:07:52.752Z,3.20
2023-04-11T01:10:21.088Z,3.07
2023-04-11T01:12:49.674Z,3.57
2023-04-11T01:15:18.025Z,3.37
2023-04-11T01:17:48.245Z,3.37
2023-04-11T01:20:16.564Z,3.10
2023-04-11T01:22:47.389Z,3.47
2023-04-11T01:25:21.847Z,3.40
2023-04-11T01:27:50.517Z,3.57
2023-04-11T01:30:18.690Z,3.07
2023-04-11T01:32:46.788Z,3.90
2023-04-11T01:35:15.676Z,3.60
2023-04-11T01:37:44.089Z,3.40
2023-04-11T01:40:12.812Z,3.80
2023-04-11T01:42:42.876Z,3.40
2023-04-11T01:45:13.330Z,3.37
2023-04-11T01:47:41.626Z,3.70
2023-04-11T01:50:12.339Z,3.23
2023-04-11T01:52:40.792Z,3.40
2023-04-11T01:55:09.768Z,3.77
2023-04-11T01:57:38.028Z,3.90
2023-04-11T02:00:11.053Z,3.90
2023-04-11T02:02:39.784Z,3.97
2023-04-11T02:05:08.700Z,4.10
2023-04-11T02:07:37.607Z,4.00
2023-04-11T02:10:06.880Z,4.30
2023-04-11T02:12:35.171Z,4.23
2023-04-11T02:15:03.285Z,4.00
2023-04-11T02:17:33.058Z,4.30
2023-04-11T02:20:01.812Z,3.93
2023-04-11T02:22:29.917Z,3.73
2023-04-11T02:25:01.432Z,3.97
2023-04-11T02:27:29.748Z,4.10
2023-04-11T02:29:58.571Z,3.70
2023-04-11T02:32:27.903Z,4.10
2023-04-11T02:35:00.588Z,4.07
2023-04-11T02:37:29.615Z,3.70
2023-04-11T02:39:58.904Z,4.07
2023-04-11T02:42:26.990Z,4.07
2023-04-11T02:44:56.857Z,4.30
2023-04-11T02:47:25.549Z,3.70
2023-04-11T02:49:53.682Z,4.60
2023-04-11T02:52:23.370Z,4.17
2023-04-11T02:54:51.560Z,4.00
2023-04-11T02:57:19.973Z,4.10
2023-04-11T02:59:48.247Z,4.10
2023-04-11T03:02:16.627Z,4.50
2023-04-11T03:04:44.879Z,4.67
2023-04-11T03:07:13.157Z,4.83
2023-04-11T03:09:43.361Z,4.40
2023-04-11T03:12:11.656Z,4.60
2023-04-11T03:14:40.012Z,4.20
2023-04-11T03:17:08.521Z,4.60
2023-04-11T03:19:36.644Z,5.13
2023-04-11T03:22:06.116Z,4.67
2023-04-11T03:24:34.416Z,4.70
2023-04-11T03:27:03.893Z,4.57
2023-04-11T03:29:32.742Z,4.50
2023-04-11T03:32:01.325Z,4.40
2023-04-11T03:34:29.748Z,4.23
2023-04-11T03:36:58.221Z,4.90
2023-04-11T03:39:26.648Z,5.03
2023-04-11T03:41:54.818Z,4.40
2023-04-11T03:44:24.734Z,4.80
2023-04-11T03:46:53.250Z,4.90
2023-04-11T03:49:21.630Z,5.30
2023-04-11T03:51:50.165Z,5.00
2023-04-11T03:54:18.783Z,4.93
2023-04-11T03:56:47.111Z,4.80
2023-04-11T03:59:15.900Z,4.67
2023-04-11T04:01:45.545Z,4.67
2023-04-11T04:04:14.383Z,4.40
2023-04-11T04:06:43.166Z,4.93
2023-04-11T04:09:11.764Z,4.67
2023-04-11T04:11:39.931Z,4.60
2023-04-11T04:14:08.253Z,5.07
2023-04-11T04:16:36.688Z,5.00
2023-04-11T04:19:06.496Z,4.70
2023-04-11T04:21:38.249Z,5.33
2023-04-11T04:24:07.107Z,5.13
2023-04-11T04:26:38.113Z,4.70
2023-04-11T04:29:06.832Z,5.13
2023-04-11T04:31:35.829Z,4.90
2023-04-11T04:34:09.805Z,5.50
2023-04-11T04:36:46.517Z,4.97
2023-04-11T04:39:18.190Z,5.00
2023-04-11T04:41:48.698Z,5.60
2023-04-11T04:44:17.486Z,5.30
2023-04-11T04:46:46.474Z,5.40
2023-04-11T04:49:16.648Z,5.53
2023-04-11T04:51:44.702Z,5.00
2023-04-11T04:54:12.956Z,5.40
2023-04-11T04:56:41.580Z,5.60
2023-04-11T04:59:14.790Z,5.10
2023-04-11T05:01:43.184Z,5.23
2023-04-11T05:04:11.705Z,5.20
2023-04-11T05:06:41.838Z,5.77
2023-04-11T05:09:10.196Z,5.77
2023-04-11T05:11:38.481Z,5.70
2023-04-11T05:14:06.919Z,6.10
2023-04-11T05:16:35.728Z,5.80
2023-04-11T05:19:03.870Z,6.00
2023-04-11T05:21:32.155Z,6.10
2023-04-11T05:24:01.833Z,5.77
2023-04-11T05:26:30.057Z,6.27
2023-04-11T05:28:58.879Z,6.63
2023-04-11T05:31:27.747Z,6.30
2023-04-11T05:33:56.137Z,6.20
2023-04-11T05:36:24.837Z,6.00
2023-04-11T05:38:53.168Z,6.80
2023-04-11T05:41:22.694Z,6.07
2023-04-11T05:43:51.114Z,6.43
2023-04-11T05:46:19.693Z,6.57
2023-04-11T05:48:47.802Z,6.30
2023-04-11T05:51:16.175Z,6.87
2023-04-11T05:53:44.993Z,6.53
2023-04-11T05:56:13.147Z,6.30
2023-04-11T05:58:44.465Z,6.13
2023-04-11T06:01:14.401Z,6.37
2023-04-11T06:03:42.697Z,6.93
2023-04-11T06:06:11.470Z,6.67
2023-04-11T06:08:40.131Z,6.77
2023-04-11T06:11:08.404Z,7.33
2023-04-11T06:13:36.634Z,7.40
2023-04-11T06:16:07.281Z,7.37
2023-04-11T06:18:35.402Z,8.20
2023-04-11T06:21:03.837Z,8.20
2023-04-11T06:23:32.499Z,7.70
2023-04-11T06:26:00.932Z,7.83
2023-04-11T06:28:29.069Z,8.80
2023-04-11T06:30:57.321Z,8.53
2023-04-11T06:33:26.878Z,8.30
2023-04-11T06:35:55.287Z,7.93
2023-04-11T06:38:23.723Z,9.17
2023-04-11T06:40:54.680Z,8.07
2023-04-11T06:43:23.447Z,8.50
2023-04-11T06:45:52.297Z,8.90
2023-04-11T06:48:21.341Z,8.70
2023-04-11T06:50:51.460Z,8.23
2023-04-11T06:53:19.750Z,8.57
2023-04-11T06:55:50.037Z,8.70
2023-04-11T06:58:18.900Z,8.27
2023-04-11T07:00:47.134Z,8.57
2023-04-11T07:03:15.516Z,8.07
2023-04-11T07:05:43.969Z,8.50
2023-04-11T07:08:13.866Z,8.03
2023-04-11T07:10:42.000Z,8.47
2023-04-11T07:13:10.161Z,8.33
2023-04-11T07:15:38.313Z,8.83
2023-04-11T07:18:06.600Z,9.03
2023-04-11T07:20:36.276Z,8.93
2023-04-11T07:23:04.744Z,9.13
2023-04-11T07:25:34.726Z,9.40
2023-04-11T07:28:07.525Z,9.10
2023-04-11T07:30:36.810Z,10.07
2023-04-11T07:33:05.590Z,9.80
2023-04-11T07:35:35.174Z,9.30
2023-04-11T07:38:03.635Z,9.37
2023-04-11T07:40:33.659Z,9.50
2023-04-11T07:43:02.489Z,9.90
2023-04-11T07:45:30.919Z,10.20
2023-04-11T07:47:59.184Z,10.00
2023-04-11T07:50:28.004Z,10.63
2023-04-11T07:52:57.694Z,10.20
2023-04-11T07:55:25.947Z,9.40
2023-04-11T07:57:55.892Z,10.13
2023-04-11T08:00:25.166Z,9.83
2023-04-11T08:02:54.143Z,9.93
2023-04-11T08:05:22.756Z,10.50
2023-04-11T08:07:51.042Z,10.23
2023-04-11T08:10:19.355Z,10.67
2023-04-11T08:12:47.811Z,10.37
2023-04-11T08:15:17.780Z,11.03
2023-04-11T08:17:45.929Z,11.23
2023-04-11T08:20:14.632Z,11.03
2023-04-11T08:22:44.807Z,11.50
2023-04-11T08:25:15.488Z,11.13
2023-04-11T08:27:43.773Z,11.50
2023-04-11T08:30:12.433Z,11.37
2023-04-11T08:32:42.743Z,11.50
2023-04-11T08:35:11.628Z,10.80
2023-04-11T08:37:40.391Z,10.80
2023-04-11T08:40:09.927Z,11.50
2023-04-11T08:42:38.264Z,11.57
2023-04-11T08:45:09.390Z,11.60
2023-04-11T08:47:38.085Z,11.13
2023-04-11T08:50:09.334Z,11.30
2023-04-11T08:52:40.067Z,11.67
2023-04-11T08:55:08.958Z,11.87
2023-04-11T08:57:38.280Z,12.20
2023-04-11T09:00:15.110Z,12.13
2023-04-11T09:02:59.529Z,12.27
2023-04-11T09:05:31.020Z,11.80
2023-04-11T09:08:02.102Z,12.90
2023-04-11T09:10:30.815Z,12.43
2023-04-11T09:12:59.628Z,11.93
2023-04-11T09:15:29.405Z,12.80
2023-04-11T09:18:00.878Z,12.50
2023-04-11T09:20:31.579Z,12.63
2023-04-11T09:23:00.427Z,13.53
2023-04-11T09:25:29.252Z,12.80
2023-04-11T09:28:09.572Z,13.20
2023-04-11T09:30:37.698Z,14.83
2023-04-11T09:33:22.289Z,13.30
2023-04-11T09:35:53.803Z,12.90
2023-04-11T09:38:32.665Z,13.20
2023-04-11T09:41:02.622Z,13.03
2023-04-11T09:43:50.633Z,12.90
2023-04-11T09:46:21.087Z,12.87
2023-04-11T09:48:50.601Z,13.03
2023-04-11T09:51:35.292Z,12.30
2023-04-11T09:54:06.460Z,12.93
2023-04-11T09:56:35.642Z,12.17
2023-04-11T09:59:05.680Z,11.63
2023-04-11T10:01:34.638Z,11.33
2023-04-11T10:04:04.583Z,12.33
2023-04-11T10:06:41.766Z,11.97
2023-04-11T10:09:12.418Z,10.83
2023-04-11T10:11:42.604Z,11.87
2023-04-11T10:14:10.866Z,10.37
2023-04-11T10:17:21.379Z,10.87
2023-04-11T10:19:57.007Z,10.97
2023-04-11T10:23:02.544Z,10.20
2023-04-11T10:25:30.825Z,11.00
2023-04-11T10:28:02.407Z,10.73
2023-04-11T10:31:05.003Z,10.20
2023-04-11T10:33:34.202Z,10.13
2023-04-11T10:36:05.472Z,11.17
2023-04-11T10:38:51.662Z,11.13
2023-04-11T10:41:31.898Z,12.40
2023-04-11T10:44:18.588Z,12.20
2023-04-11T10:46:52.202Z,12.60
2023-04-11T10:49:37.913Z,11.97
2023-04-11T10:52:20.848Z,11.23
2023-04-11T10:54:51.291Z,11.60
2023-04-11T10:57:20.349Z,11.77
2023-04-11T11:00:01.765Z,11.70
2023-04-11T11:02:41.150Z,11.67
2023-04-11T11:05:26.895Z,12.00
2023-04-11T11:07:55.616Z,11.43
2023-04-11T11:10:46.653Z,11.87
2023-04-11T11:13:17.181Z,10.93
2023-04-11T11:15:49.688Z,9.60
2023-04-11T11:18:19.642Z,9.50
2023-04-11T11:20:48.013Z,8.87
2023-04-11T11:23:16.240Z,8.20
2023-04-11T11:25:55.915Z,9.00
2023-04-11T11:28:24.567Z,8.30
2023-04-11T11:30:55.127Z,8.13
2023-04-11T11:33:26.742Z,7.27
2023-04-11T11:35:57.224Z,6.90
2023-04-11T11:38:27.967Z,7.67
2023-04-11T11:40:58.843Z,6.20
2023-04-11T11:43:28.833Z,6.63
2023-04-11T11:48:43.834Z,5.70
2023-04-11T11:51:12.306Z,6.90
2023-04-11T11:53:40.930Z,5.93
2023-04-11T11:56:17.218Z,6.13
2023-04-11T11:58:46.312Z,5.80
2023-04-11T12:01:17.263Z,5.40
2023-04-11T12:03:47.945Z,6.07
2023-04-11T12:06:16.377Z,6.30
2023-04-11T12:08:50.552Z,5.90
2023-04-11T12:11:20.762Z,6.87
2023-04-11T12:13:55.081Z,5.60
2023-04-11T12:16:27.166Z,5.97
2023-04-11T12:18:59.738Z,6.00
2023-04-11T12:21:28.370Z,6.33
2023-04-11T12:23:57.037Z,6.40
2023-04-11T12:26:26.871Z,6.80
2023-04-11T12:28:55.630Z,7.40
2023-04-11T12:31:25.557Z,6.47
2023-04-11T12:33:53.716Z,7.13
2023-04-11T12:36:23.213Z,6.87
2023-04-11T12:38:51.688Z,6.90
2023-04-11T12:41:32.118Z,6.83
2023-04-11T12:44:04.062Z,6.87
2023-04-11T12:46:33.950Z,7.43
2023-04-11T12:49:02.250Z,8.07
2023-04-11T12:51:31.386Z,8.10
2023-04-11T12:53:59.909Z,8.43
2023-04-11T12:56:28.342Z,8.90
2023-04-11T12:58:56.927Z,8.00
2023-04-11T13:01:27.500Z,9.03
2023-04-11T13:03:56.824Z,10.90
2023-04-11T13:06:26.080Z,9.30
2023-04-11T13:08:55.183Z,8.10
2023-04-11T13:11:23.691Z,8.03
2023-04-11T13:13:52.491Z,7.77
2023-04-11T13:16:20.837Z,8.50
2023-04-11T13:18:50.505Z,7.60
2023-04-11T13:21:18.633Z,7.30
2023-04-11T13:23:47.168Z,6.07
2023-04-11T13:26:15.419Z,6.93
2023-04-11T13:28:43.631Z,4.47
2023-04-11T13:31:11.925Z,5.37
2023-04-11T13:33:40.747Z,5.00
2023-04-11T13:36:11.843Z,4.90
2023-04-11T13:38:40.005Z,4.80
2023-04-11T13:41:08.742Z,5.00
2023-04-11T13:43:37.251Z,4.30
2023-04-11T13:46:06.026Z,4.93
2023-04-11T13:48:34.424Z,4.23
2023-04-11T13:51:02.675Z,4.50
2023-04-11T13:53:32.276Z,4.03
2023-04-11T13:56:00.611Z,4.27
2023-04-11T13:58:28.780Z,4.30
2023-04-11T14:00:57.398Z,3.97
2023-04-11T14:03:26.087Z,3.43
2023-04-11T14:05:54.321Z,3.40
2023-04-11T14:08:22.704Z,3.40
2023-04-11T14:10:52.374Z,3.10
2023-04-11T14:13:21.511Z,3.63
2023-04-11T14:16:04.968Z,3.23
2023-04-11T14:18:36.930Z,3.60
2023-04-11T14:21:06.060Z,3.50
2023-04-11T14:23:34.306Z,3.10
2023-04-11T14:26:04.083Z,3.87
2023-04-11T14:28:32.492Z,3.53
2023-04-11T14:31:01.415Z,2.83
2023-04-11T14:33:30.099Z,3.47
2023-04-11T14:35:58.579Z,3.77
2023-04-11T14:38:26.933Z,3.00
2023-04-11T14:40:55.542Z,3.40
2023-04-11T14:43:27.830Z,2.80
2023-04-11T14:45:57.548Z,3.27
2023-04-11T14:48:27.223Z,4.60
2023-04-11T14:50:55.981Z,4.20
2023-04-11T14:53:24.504Z,2.90
2023-04-11T14:55:53.170Z,4.03
2023-04-11T14:58:21.988Z,2.77
2023-04-11T15:00:52.288Z,2.63
2023-04-11T15:03:20.599Z,2.23
2023-04-11T15:05:48.904Z,2.30
2023-04-11T15:08:17.132Z,2.00
2023-04-11T15:10:53.962Z,2.47
2023-04-11T15:13:22.949Z,2.10
2023-04-11T15:15:53.551Z,2.00
2023-04-11T15:18:27.060Z,2.33
2023-04-11T15:20:56.945Z,1.50
2023-04-11T15:23:25.612Z,1.30
2023-04-11T15:25:55.602Z,1.43
2023-04-11T15:28:24.846Z,1.20
2023-04-11T15:30:55.729Z,1.30
2023-04-11T15:33:25.006Z,1.43
2023-04-11T15:35:54.939Z,1.20
2023-04-11T15:38:23.470Z,0.87
2023-04-11T15:40:52.273Z,1.10
2023-04-11T15:43:20.533Z,1.30
2023-04-11T15:45:49.060Z,1.17
2023-04-11T15:48:18.678Z,0.83
2023-04-11T15:50:46.828Z,2.47
2023-04-11T15:53:15.384Z,0.90
2023-04-11T15:55:45.280Z,1.10
2023-04-11T15:58:13.418Z,0.87
2023-04-11T16:00:44.155Z,0.90
2023-04-11T16:03:12.869Z,0.90
2023-04-11T16:05:43.374Z,0.90
2023-04-11T16:08:11.858Z,1.10
2023-04-11T16:10:40.276Z,0.77
2023-04-11T16:13:08.730Z,0.80
2023-04-11T16:15:36.908Z,0.80
2023-04-11T16:18:05.551Z,0.63
2023-04-11T16:20:34.178Z,0.83
2023-04-11T16:23:03.724Z,0.90
2023-04-11T16:25:32.080Z,1.03
2023-04-11T16:28:00.489Z,0.90
2023-04-11T16:30:28.979Z,0.80
2023-04-11T16:32:57.700Z,0.83
2023-04-11T16:35:26.226Z,1.47
2023-04-11T16:37:54.522Z,0.77
2023-04-11T16:40:24.514Z,0.70
2023-04-11T16:42:52.729Z,0.77
2023-04-11T16:45:21.314Z,0.70
2023-04-11T16:47:50.239Z,0.80
2023-04-11T16:50:18.781Z,1.00
2023-04-11T16:52:47.354Z,0.87
2023-04-11T16:55:15.940Z,0.90
2023-04-11T16:57:45.546Z,0.70
2023-04-11T17:00:16.519Z,0.67
2023-04-11T17:02:44.988Z,0.70
2023-04-11T17:05:13.887Z,1.00
2023-04-11T17:07:44.011Z,0.80
2023-04-11T17:10:12.851Z,1.00
2023-04-11T17:12:41.308Z,0.73
2023-04-11T17:15:12.388Z,0.80
2023-04-11T17:17:40.634Z,1.17
2023-04-11T17:20:11.835Z,0.90
2023-04-11T17:22:43.316Z,1.00
2023-04-11T17:25:12.184Z,0.73
2023-04-11T17:27:41.713Z,0.90
2023-04-11T17:30:12.524Z,1.10
2023-04-11T17:32:41.325Z,0.70
2023-04-11T17:35:10.289Z,0.97
2023-04-11T17:37:40.151Z,1.00
2023-04-11T17:40:14.330Z,0.90
2023-04-11T17:42:43.547Z,0.80
2023-04-11T17:45:18.303Z,1.00
2023-04-11T17:47:47.685Z,0.93
2023-04-11T17:50:17.431Z,1.00
2023-04-11T17:52:46.720Z,1.10
2023-04-11T17:55:17.724Z,1.20
2023-04-11T17:57:46.423Z,1.10
2023-04-11T18:00:19.341Z,0.90
2023-04-11T18:02:49.918Z,1.07
2023-04-11T18:05:24.615Z,1.03
2023-04-11T18:07:54.883Z,1.17
2023-04-11T18:10:23.515Z,1.30
2023-04-11T18:12:53.657Z,1.10
2023-04-11T18:15:24.106Z,1.00
2023-04-11T18:17:53.044Z,1.43
2023-04-11T18:20:21.396Z,1.10
2023-04-11T18:22:51.696Z,1.20
2023-04-11T18:25:19.825Z,1.30
2023-04-11T18:27:48.181Z,1.30
2023-04-11T18:30:17.980Z,1.00
2023-04-11T18:32:50.184Z,1.23
2023-04-11T18:35:19.450Z,1.30
2023-04-11T18:37:47.716Z,1.20
2023-04-11T18:40:17.071Z,1.47
2023-04-11T18:42:48.114Z,1.43
2023-04-11T18:45:18.082Z,1.10
2023-04-11T18:47:47.936Z,0.90
2023-04-11T18:50:17.394Z,1.20
2023-04-11T18:52:49.370Z,1.30
2023-04-11T18:55:20.908Z,1.40
2023-04-11T18:57:50.853Z,1.47
2023-04-11T19:00:20.724Z,1.50
2023-04-11T19:02:51.054Z,1.50
2023-04-11T19:05:20.776Z,1.30
2023-04-11T19:07:49.104Z,1.67
2023-04-11T19:10:17.310Z,1.70
2023-04-11T19:12:48.073Z,1.57
2023-04-11T19:15:17.285Z,1.30
2023-04-11T19:17:45.899Z,1.40
2023-04-11T19:20:16.699Z,1.40
2023-04-11T19:22:51.360Z,1.77
2023-04-11T19:25:22.979Z,1.80
2023-04-11T19:27:52.301Z,1.60
2023-04-11T19:30:20.474Z,1.50
2023-04-11T19:32:48.780Z,1.73
2023-04-11T19:35:26.356Z,1.80
2023-04-11T19:37:55.584Z,1.47
2023-04-11T19:40:24.327Z,1.30
2023-04-11T19:42:59.858Z,1.40
2023-04-11T19:45:31.122Z,1.40
2023-04-11T19:48:02.536Z,1.63
2023-04-11T19:50:34.288Z,1.53
2023-04-11T19:53:04.388Z,1.80
2023-04-11T19:55:32.920Z,1.40
2023-04-11T19:58:01.824Z,1.50
2023-04-11T20:00:34.741Z,1.53
2023-04-11T20:03:05.914Z,1.60
2023-04-11T20:05:36.209Z,1.40
2023-04-11T20:08:04.637Z,2.03
2023-04-11T20:10:34.235Z,1.90
2023-04-11T20:13:02.598Z,1.60
2023-04-11T20:15:31.169Z,1.93
2023-04-11T20:18:00.054Z,1.73
2023-04-11T20:20:29.955Z,2.00
2023-04-11T20:23:00.158Z,1.33
2023-04-11T20:25:28.366Z,1.60
2023-04-11T20:27:56.781Z,1.30
2023-04-11T20:30:25.402Z,1.60
2023-04-11T20:32:57.850Z,1.40
2023-04-11T20:35:26.801Z,1.20
2023-04-11T20:37:54.876Z,1.47
2023-04-11T20:40:24.672Z,1.30
2023-04-11T20:42:53.098Z,1.57
2023-04-11T20:45:22.046Z,1.33
2023-04-11T20:47:50.765Z,1.00
2023-04-11T20:50:19.991Z,0.80
2023-04-11T20:52:50.634Z,1.20
2023-04-11T20:55:18.887Z,0.80
2023-04-11T20:57:48.580Z,1.20
2023-04-11T21:00:18.460Z,1.10
2023-04-11T21:02:50.275Z,1.10
2023-04-11T21:05:21.027Z,0.97
2023-04-11T21:07:49.312Z,0.80
2023-04-11T21:10:19.531Z,1.20
2023-04-11T21:12:51.757Z,1.13
2023-04-11T21:15:20.764Z,0.90
2023-04-11T21:17:50.408Z,1.03
2023-04-11T21:20:19.678Z,1.30
2023-04-11T21:22:48.821Z,1.10
2023-04-11T21:25:17.646Z,1.10
2023-04-11T21:27:46.720Z,1.10
2023-04-11T21:30:16.783Z,1.10
2023-04-11T21:32:45.414Z,1.20
2023-04-11T21:35:14.138Z,1.20
2023-04-11T21:37:42.789Z,1.20
2023-04-11T21:40:12.799Z,1.53
2023-04-11T21:42:41.027Z,1.30
2023-04-11T21:45:10.389Z,1.30
2023-04-11T21:47:40.023Z,1.20
2023-04-11T21:50:09.531Z,1.30
2023-04-11T21:52:38.118Z,1.27
2023-04-11T21:55:09.064Z,1.30
2023-04-11T21:57:37.430Z,1.47
2023-04-11T22:00:07.866Z,1.30
2023-04-11T22:02:37.100Z,1.70
2023-04-11T22:05:08.877Z,1.10
2023-04-11T22:07:39.571Z,1.30
2023-04-11T22:10:12.132Z,1.27
2023-04-11T22:12:40.784Z,1.27
2023-04-11T22:15:12.805Z,1.40
2023-04-11T22:17:43.817Z,1.67
2023-04-11T22:20:14.325Z,1.27
2023-04-11T22:22:42.497Z,1.37
2023-04-11T22:25:11.766Z,1.20
2023-04-11T22:27:40.152Z,1.40
2023-04-11T22:30:09.993Z,1.30
2023-04-11T22:32:38.352Z,1.50
2023-04-11T22:35:08.325Z,1.30
2023-04-11T22:37:38.777Z,1.60
2023-04-11T22:40:08.618Z,2.00
2023-04-11T22:42:37.286Z,1.40
2023-04-11T22:45:06.213Z,1.70
2023-04-11T22:47:38.174Z,1.47
2023-04-11T22:50:07.152Z,1.53
2023-04-11T22:52:35.592Z,1.47
2023-04-11T22:55:05.686Z,1.80
2023-04-11T22:57:35.190Z,1.70
2023-04-11T23:00:05.021Z,1.70
2023-04-11T23:02:33.479Z,1.60
2023-04-11T23:05:03.399Z,1.67
2023-04-11T23:07:33.155Z,1.77
2023-04-11T23:10:04.468Z,2.10
2023-04-11T23:12:34.363Z,2.00
2023-04-11T23:15:03.321Z,2.00
2023-04-11T23:17:32.133Z,1.87
2023-04-11T23:20:01.944Z,1.80
2023-04-11T23:22:30.018Z,2.30
2023-04-11T23:24:58.441Z,2.50
2023-04-11T23:27:26.792Z,2.03
2023-04-11T23:29:56.534Z,2.00
2023-04-11T23:32:24.879Z,1.80
2023-04-11T23:34:53.076Z,1.80
2023-04-11T23:37:21.145Z,1.60
2023-04-11T23:39:49.337Z,2.03
2023-04-11T23:42:17.545Z,2.10
2023-04-11T23:44:45.780Z,2.30
2023-04-11T23:47:15.491Z,1.90
2023-04-11T23:49:44.466Z,1.90
2023-04-11T23:52:12.754Z,2.07
2023-04-11T23:54:41.805Z,2.17
2023-04-11T23:57:09.973Z,2.20
2023-04-11T23:59:38.177Z,1.87
